Terminal Aerodrome Forecast
Issued by NWS Cleveland, OH

Home | Current Version | Previous Version | Graphics & Text | Print | Product List | Glossary On
Versions: 1 2 3 4 5 6 7 8 9 10 11 12 13 14 15 16 17 18 19 20 21 22 23 24 25 26 27 28 29 30 31 32 33 34
000
FTUS41 KCLE 192200 AAA
TAFCLE
TAF AMD
KCLE 192242Z 1923/2024 19010G18KT P6SM -SHRA VCTS OVC050CB
     FM200100 18004KT 5SM SHRA OVC050
      TEMPO 2001/2003 30015G30KT 2SM TSRA BR BKN025CB
     FM200300 18004KT 6SM BR BKN035
     FM200800 18004KT 5SM BR BKN080
     FM201400 25006KT P6SM SCT035 BKN120
     FM201800 25009KT P6SM BKN045=

USA.gov is the U.S. government's official web portal to all federal, state and local government web resources and services.